createdAt,value
2022-12-12T00:00:12.770Z,1.44
2022-12-12T00:02:40.231Z,0.89
2022-12-12T00:05:08.139Z,1.60
2022-12-12T00:07:35.702Z,1.66
2022-12-12T00:10:02.889Z,2.07
2022-12-12T00:12:30.301Z,1.66
2022-12-12T00:14:57.466Z,1.82
2022-12-12T00:17:24.582Z,2.37
2022-12-12T00:19:52.072Z,1.93
2022-12-12T00:22:19.231Z,1.61
2022-12-12T00:24:46.684Z,2.10
2022-12-12T00:27:23.286Z,2.02
2022-12-12T00:29:54.227Z,1.64
2022-12-12T00:32:21.411Z,1.36
2022-12-12T00:34:49.724Z,2.29
2022-12-12T00:37:16.855Z,2.27
2022-12-12T00:39:43.972Z,2.55
2022-12-12T00:42:11.375Z,0.88
2022-12-12T00:44:38.501Z,2.27
2022-12-12T00:47:05.637Z,2.51
2022-12-12T00:49:33.071Z,2.56
2022-12-12T00:52:00.210Z,3.51
2022-12-12T00:54:27.316Z,3.24
2022-12-12T00:56:54.746Z,2.92
2022-12-12T00:59:22.131Z,2.74
2022-12-12T01:01:49.311Z,2.21
2022-12-12T01:04:16.760Z,2.70
2022-12-12T01:06:43.960Z,2.95
2022-12-12T01:09:11.076Z,3.03
2022-12-12T01:11:39.786Z,3.06
2022-12-12T01:14:07.408Z,3.13
2022-12-12T01:16:37.202Z,2.38
2022-12-12T01:19:04.860Z,1.79
2022-12-12T01:21:31.997Z,2.57
2022-12-12T01:23:59.120Z,2.56
2022-12-12T01:26:26.575Z,2.94
2022-12-12T01:28:53.779Z,2.67
2022-12-12T01:31:21.328Z,1.59
2022-12-12T01:33:49.931Z,1.74
2022-12-12T01:36:18.636Z,1.91
2022-12-12T01:38:46.313Z,1.59
2022-12-12T01:41:13.955Z,2.14
2022-12-12T01:43:41.961Z,1.58
2022-12-12T01:46:27.765Z,2.29
2022-12-12T01:48:56.900Z,2.24
2022-12-12T01:51:24.417Z,1.15
2022-12-12T01:53:52.166Z,2.04
2022-12-12T01:56:19.778Z,1.31
2022-12-12T01:58:47.969Z,1.49
2022-12-12T02:01:15.305Z,0.60
2022-12-12T02:03:42.728Z,1.01
2022-12-12T02:06:11.090Z,0.94
2022-12-12T02:08:38.303Z,0.42
2022-12-12T02:11:06.132Z,-0.03
2022-12-12T02:13:33.452Z,0.59
2022-12-12T02:16:19.531Z,1.01
2022-12-12T02:18:55.850Z,1.61
2022-12-12T02:21:25.866Z,1.71
2022-12-12T02:24:02.602Z,1.19
2022-12-12T02:26:49.075Z,0.45
2022-12-12T02:29:35.383Z,1.37
2022-12-12T02:32:22.738Z,1.61
2022-12-12T02:34:51.608Z,1.68
2022-12-12T02:37:24.911Z,1.84
2022-12-12T02:39:58.394Z,1.18
2022-12-12T02:42:30.042Z,1.07
2022-12-12T02:44:59.708Z,1.33
2022-12-12T02:47:28.669Z,0.81
2022-12-12T02:50:01.061Z,0.49
2022-12-12T02:52:28.711Z,0.01
2022-12-12T02:54:55.940Z,0.56
2022-12-12T02:57:25.142Z,0.88
2022-12-12T02:59:54.635Z,0.77
2022-12-12T03:03:19.110Z,1.08
2022-12-12T03:06:05.004Z,0.81
2022-12-12T03:08:34.957Z,0.89
2022-12-12T03:11:09.276Z,0.33
2022-12-12T03:13:46.218Z,1.08
2022-12-12T03:16:26.236Z,0.95
2022-12-12T03:18:53.606Z,0.27
2022-12-12T03:21:21.218Z,0.29
2022-12-12T03:23:50.073Z,0.48
2022-12-12T03:26:18.931Z,0.45
2022-12-12T03:28:47.700Z,1.34
2022-12-12T03:31:15.232Z,1.36
2022-12-12T03:33:47.449Z,1.13
2022-12-12T03:36:25.266Z,1.53
2022-12-12T03:39:00.198Z,0.98
2022-12-12T03:41:31.948Z,2.40
2022-12-12T03:44:04.139Z,1.19
2022-12-12T03:46:32.863Z,1.59
2022-12-12T03:49:29.495Z,2.06
2022-12-12T03:52:15.686Z,2.76
2022-12-12T03:55:02.469Z,2.19
2022-12-12T03:57:34.980Z,1.80
2022-12-12T04:00:04.105Z,2.18
2022-12-12T04:02:41.491Z,1.97
2022-12-12T04:05:09.083Z,2.39
2022-12-12T04:07:40.881Z,2.86
2022-12-12T04:10:26.718Z,2.67
2022-12-12T04:13:03.632Z,3.13
2022-12-12T04:15:40.241Z,3.38
2022-12-12T04:18:13.755Z,3.62
2022-12-12T04:21:16.119Z,3.67
2022-12-12T04:23:55.855Z,3.18
2022-12-12T04:26:55.334Z,3.68
2022-12-12T04:29:34.912Z,2.19
2022-12-12T04:32:21.989Z,3.56
2022-12-12T04:35:10.420Z,2.08
2022-12-12T04:37:38.684Z,1.94
2022-12-12T04:40:06.935Z,2.19
2022-12-12T04:42:34.887Z,2.42
2022-12-12T04:45:06.423Z,3.12
2022-12-12T04:47:33.961Z,3.00
2022-12-12T04:50:01.200Z,2.14
2022-12-12T04:52:28.330Z,2.30
2022-12-12T04:54:58.873Z,2.32
2022-12-12T04:57:27.297Z,1.99
2022-12-12T04:59:54.427Z,2.38
2022-12-12T05:02:28.631Z,3.44
2022-12-12T05:04:59.377Z,3.95
2022-12-12T05:07:43.473Z,3.70
2022-12-12T05:10:14.992Z,3.14
2022-12-12T05:12:43.443Z,3.45
2022-12-12T05:15:10.842Z,2.74
2022-12-12T05:17:48.557Z,2.18
2022-12-12T05:20:16.002Z,2.96
2022-12-12T05:22:43.141Z,3.08
2022-12-12T05:25:10.675Z,2.54
2022-12-12T05:27:38.249Z,4.07
2022-12-12T05:30:05.735Z,3.71
2022-12-12T05:32:32.860Z,3.97
2022-12-12T05:35:00.264Z,4.05
2022-12-12T05:37:27.702Z,3.22
2022-12-12T05:39:54.829Z,1.56
2022-12-12T05:42:22.237Z,2.97
2022-12-12T05:44:49.445Z,2.51
2022-12-12T05:47:16.567Z,1.39
2022-12-12T05:49:44.019Z,2.43
2022-12-12T05:52:11.188Z,3.07
2022-12-12T05:54:40.363Z,2.21
2022-12-12T05:57:07.859Z,2.34
2022-12-12T05:59:35.154Z,1.87
2022-12-12T06:02:02.672Z,1.68
2022-12-12T06:04:30.909Z,1.71
2022-12-12T06:06:58.649Z,1.66
2022-12-12T06:09:25.784Z,1.82
2022-12-12T06:11:53.791Z,2.97
2022-12-12T06:14:20.912Z,1.70
2022-12-12T06:16:49.516Z,1.90
2022-12-12T06:19:18.210Z,2.63
2022-12-12T06:21:45.440Z,3.53
2022-12-12T06:24:12.581Z,3.73
2022-12-12T06:26:40.168Z,4.13
2022-12-12T06:29:07.296Z,3.94
2022-12-12T06:31:34.486Z,4.60
2022-12-12T06:34:04.409Z,4.43
2022-12-12T06:36:31.546Z,3.79
2022-12-12T06:38:59.440Z,4.12
2022-12-12T06:41:27.731Z,5.04
2022-12-12T06:43:55.772Z,5.05
2022-12-12T06:46:23.948Z,5.06
2022-12-12T06:48:52.638Z,3.96
2022-12-12T06:51:20.737Z,3.99
2022-12-12T06:53:48.075Z,3.99
2022-12-12T06:56:16.578Z,4.62
2022-12-12T06:58:43.704Z,4.25
2022-12-12T07:01:11.315Z,3.91
2022-12-12T07:03:38.811Z,4.41
2022-12-12T07:06:06.234Z,2.90
2022-12-12T07:08:33.969Z,2.61
2022-12-12T07:11:05.015Z,3.43
2022-12-12T07:13:32.159Z,3.11
2022-12-12T07:16:00.359Z,3.12
2022-12-12T07:18:28.101Z,2.62
2022-12-12T07:20:55.433Z,3.81
2022-12-12T07:23:22.547Z,3.66
2022-12-12T07:25:49.958Z,3.24
2022-12-12T07:28:19.855Z,3.67
2022-12-12T07:30:47.137Z,2.62
2022-12-12T07:33:16.641Z,2.91
2022-12-12T07:35:43.857Z,3.43
2022-12-12T07:38:11.215Z,3.39
2022-12-12T07:40:38.612Z,3.46
2022-12-12T07:43:05.731Z,2.35
2022-12-12T07:45:32.849Z,2.48
2022-12-12T07:48:00.304Z,3.50
2022-12-12T07:50:27.453Z,3.42
2022-12-12T07:52:54.635Z,2.80
2022-12-12T07:55:22.101Z,4.18
2022-12-12T07:57:50.000Z,3.70
2022-12-12T08:00:17.558Z,3.08
2022-12-12T08:02:45.117Z,2.86
2022-12-12T08:05:12.499Z,3.27
2022-12-12T08:07:40.169Z,2.73
2022-12-12T08:10:07.875Z,3.58
2022-12-12T08:12:34.982Z,2.90
2022-12-12T08:15:02.107Z,3.15
2022-12-12T08:17:30.568Z,2.00
2022-12-12T08:19:57.767Z,2.22
2022-12-12T08:22:24.890Z,3.53
2022-12-12T08:24:52.267Z,2.90
2022-12-12T08:27:19.689Z,1.27
2022-12-12T08:29:46.840Z,2.23
2022-12-12T08:32:14.333Z,0.93
2022-12-12T08:34:41.495Z,1.84
2022-12-12T08:37:08.654Z,2.63
2022-12-12T08:39:36.892Z,1.91
2022-12-12T08:42:04.175Z,1.95
2022-12-12T08:44:31.308Z,2.11
2022-12-12T08:46:58.785Z,2.67
2022-12-12T08:49:25.946Z,2.76
2022-12-12T08:51:53.139Z,2.52
2022-12-12T08:54:20.626Z,1.95
2022-12-12T08:56:47.930Z,2.73
2022-12-12T08:59:15.316Z,2.03
2022-12-12T09:01:42.873Z,1.49
2022-12-12T09:04:10.092Z,1.81
2022-12-12T09:06:37.223Z,1.80
2022-12-12T09:09:05.658Z,1.19
2022-12-12T09:11:32.777Z,2.41
2022-12-12T09:13:59.932Z,2.04
2022-12-12T09:16:29.910Z,1.59
2022-12-12T09:18:57.152Z,1.91
2022-12-12T09:21:24.277Z,2.86
2022-12-12T09:23:51.702Z,3.17
2022-12-12T09:26:18.883Z,2.13
2022-12-12T09:28:45.997Z,1.39
2022-12-12T09:31:13.600Z,1.77
2022-12-12T09:33:40.895Z,2.57
2022-12-12T09:36:08.045Z,1.54
2022-12-12T09:38:35.553Z,1.87
2022-12-12T09:41:02.770Z,1.75
2022-12-12T09:43:31.275Z,1.93
2022-12-12T09:45:59.124Z,1.80
2022-12-12T09:48:45.177Z,1.70
2022-12-12T09:51:12.789Z,1.62
2022-12-12T09:53:40.447Z,1.95
2022-12-12T09:56:13.342Z,1.31
2022-12-12T09:58:55.258Z,1.52
2022-12-12T10:01:26.285Z,1.65
2022-12-12T10:03:59.919Z,2.29
2022-12-12T10:06:37.023Z,2.61
2022-12-12T10:09:17.856Z,2.48
2022-12-12T10:11:50.829Z,2.68
2022-12-12T10:14:19.418Z,3.19
2022-12-12T10:16:46.605Z,2.77
2022-12-12T10:19:21.012Z,3.62
2022-12-12T10:21:48.512Z,3.24
2022-12-12T10:24:24.239Z,3.30
2022-12-12T10:26:52.489Z,2.67
2022-12-12T10:29:20.798Z,2.79
2022-12-12T10:31:54.335Z,1.82
2022-12-12T10:34:22.364Z,3.24
2022-12-12T10:36:52.526Z,2.46
2022-12-12T10:39:22.408Z,3.21
2022-12-12T10:41:58.836Z,2.40
2022-12-12T10:44:45.645Z,1.89
2022-12-12T10:47:14.696Z,1.95
2022-12-12T10:49:42.192Z,2.55
2022-12-12T10:52:17.743Z,2.87
2022-12-12T10:54:46.769Z,2.65
2022-12-12T10:57:20.764Z,3.63
2022-12-12T10:59:49.770Z,2.21
2022-12-12T11:02:28.124Z,1.35
2022-12-12T11:05:11.197Z,1.83
2022-12-12T11:07:40.143Z,1.36
2022-12-12T11:10:18.985Z,1.24
2022-12-12T11:12:46.130Z,1.68
2022-12-12T11:15:14.979Z,1.42
2022-12-12T11:17:42.272Z,1.46
2022-12-12T11:20:14.496Z,2.49
2022-12-12T11:22:41.880Z,3.05
2022-12-12T11:25:21.042Z,2.29
2022-12-12T11:27:48.417Z,2.42
2022-12-12T11:30:28.310Z,1.86
2022-12-12T11:32:55.736Z,2.17
2022-12-12T11:35:33.382Z,2.65
2022-12-12T11:38:02.475Z,1.80
2022-12-12T11:40:30.578Z,2.21
2022-12-12T11:43:16.654Z,2.34
2022-12-12T11:45:44.759Z,2.22
2022-12-12T11:48:30.766Z,2.52
2022-12-12T11:50:58.186Z,2.12
2022-12-12T11:53:25.678Z,2.45
2022-12-12T11:55:56.239Z,2.75
2022-12-12T11:58:27.480Z,3.29
2022-12-12T12:00:54.554Z,2.75
2022-12-12T12:03:34.024Z,3.54
2022-12-12T12:06:19.993Z,4.09
2022-12-12T12:09:06.096Z,2.71
2022-12-12T12:11:38.054Z,3.01
2022-12-12T12:14:05.605Z,3.39
2022-12-12T12:16:32.712Z,3.02
2022-12-12T12:18:59.807Z,3.85
2022-12-12T12:21:45.642Z,3.99
2022-12-12T12:24:18.570Z,2.52
2022-12-12T12:26:55.638Z,2.91
2022-12-12T12:29:25.723Z,3.81
2022-12-12T12:31:56.952Z,2.76
2022-12-12T12:34:31.851Z,3.62
2022-12-12T12:37:18.025Z,3.47
2022-12-12T12:39:52.200Z,3.01
2022-12-12T12:42:25.119Z,2.75
2022-12-12T12:44:55.367Z,3.89
2022-12-12T12:47:28.992Z,2.54
2022-12-12T12:49:58.612Z,2.81
2022-12-12T12:52:36.665Z,3.97
2022-12-12T12:55:03.897Z,3.30
2022-12-12T12:57:35.185Z,3.52
2022-12-12T13:00:06.870Z,2.37
2022-12-12T13:02:34.550Z,2.54
2022-12-12T13:05:10.483Z,3.44
2022-12-12T13:07:52.565Z,2.47
2022-12-12T13:10:20.972Z,3.28
2022-12-12T13:12:51.752Z,2.93
2022-12-12T13:15:23.937Z,2.32
2022-12-12T13:18:01.608Z,3.46
2022-12-12T13:20:29.696Z,3.36
2022-12-12T13:23:04.534Z,3.50
2022-12-12T13:25:47.606Z,2.78
2022-12-12T13:28:16.017Z,2.66
2022-12-12T13:30:43.198Z,2.28
2022-12-12T13:33:33.623Z,3.32
2022-12-12T13:36:06.539Z,2.75
2022-12-12T13:38:33.747Z,2.40
2022-12-12T13:41:07.505Z,3.86
2022-12-12T13:43:38.112Z,3.02
2022-12-12T13:46:27.502Z,1.79
2022-12-12T13:49:04.082Z,3.30
2022-12-12T13:51:34.807Z,2.48
2022-12-12T13:54:12.783Z,2.92
2022-12-12T13:56:44.660Z,2.17
2022-12-12T13:59:25.139Z,2.54
2022-12-12T14:01:52.598Z,3.47
2022-12-12T14:04:27.366Z,3.85
2022-12-12T14:07:01.856Z,2.77
2022-12-12T14:09:47.055Z,3.33
2022-12-12T14:12:31.022Z,3.90
2022-12-12T14:15:00.614Z,3.30
2022-12-12T14:17:28.755Z,3.50
2022-12-12T14:19:56.445Z,4.11
2022-12-12T14:22:40.062Z,3.86
2022-12-12T14:25:08.377Z,4.32
2022-12-12T14:27:50.806Z,4.63
2022-12-12T14:30:18.806Z,4.46
2022-12-12T14:32:49.034Z,3.81
2022-12-12T14:35:25.425Z,4.02
2022-12-12T14:38:11.743Z,3.65
2022-12-12T14:40:39.550Z,3.81
2022-12-12T14:43:19.725Z,3.30
2022-12-12T14:45:49.414Z,4.13
2022-12-12T14:48:24.214Z,3.05
2022-12-12T14:50:59.417Z,3.69
2022-12-12T14:53:37.433Z,4.58
2022-12-12T14:56:07.797Z,4.51
2022-12-12T14:58:36.076Z,3.69
2022-12-12T15:01:04.211Z,4.06
2022-12-12T15:03:34.503Z,3.09
2022-12-12T15:06:34.458Z,3.15
2022-12-12T15:09:16.383Z,3.26
2022-12-12T15:11:44.004Z,4.48
2022-12-12T15:14:21.318Z,3.51
2022-12-12T15:16:50.568Z,3.64
2022-12-12T15:19:37.988Z,4.28
2022-12-12T15:22:16.230Z,4.37
2022-12-12T15:24:44.283Z,3.26
2022-12-12T15:27:14.819Z,4.51
2022-12-12T15:29:42.555Z,4.65
2022-12-12T15:32:14.153Z,3.60
2022-12-12T15:34:42.055Z,4.45
2022-12-12T15:37:10.116Z,4.39
2022-12-12T15:39:37.251Z,4.08
2022-12-12T15:42:05.097Z,3.13
2022-12-12T15:44:32.233Z,4.31
2022-12-12T15:46:59.475Z,4.72
2022-12-12T15:49:39.782Z,5.14
2022-12-12T15:52:26.636Z,3.70
2022-12-12T15:54:55.190Z,4.93
2022-12-12T15:57:23.685Z,4.93
2022-12-12T15:59:57.718Z,4.84
2022-12-12T16:02:26.143Z,3.79
2022-12-12T16:04:56.444Z,4.63
2022-12-12T16:07:23.683Z,3.54
2022-12-12T16:09:57.983Z,3.00
2022-12-12T16:12:44.251Z,3.84
2022-12-12T16:15:18.890Z,4.31
2022-12-12T16:17:59.599Z,3.92
2022-12-12T16:20:30.383Z,4.18
2022-12-12T16:23:08.774Z,4.17
2022-12-12T16:25:36.798Z,5.08
2022-12-12T16:28:07.091Z,3.69
2022-12-12T16:30:34.924Z,4.35
2022-12-12T16:33:11.982Z,3.05
2022-12-12T16:35:39.414Z,3.87
2022-12-12T16:38:12.245Z,2.13
2022-12-12T16:40:39.674Z,1.89
2022-12-12T16:43:11.353Z,3.34
2022-12-12T16:45:39.065Z,3.08
2022-12-12T16:48:16.864Z,3.81
2022-12-12T16:50:44.782Z,3.18
2022-12-12T16:53:12.241Z,3.26
2022-12-12T16:55:40.158Z,2.93
2022-12-12T16:58:07.547Z,3.37
2022-12-12T17:00:34.991Z,3.67
2022-12-12T17:03:02.255Z,4.03
2022-12-12T17:05:29.635Z,3.84
2022-12-12T17:07:57.044Z,4.67
2022-12-12T17:10:35.446Z,3.38
2022-12-12T17:13:05.816Z,3.69
2022-12-12T17:15:35.631Z,3.81
2022-12-12T17:18:04.266Z,4.50
2022-12-12T17:20:37.732Z,3.35
2022-12-12T17:25:51.083Z,4.48
2022-12-12T17:28:19.480Z,4.93
2022-12-12T17:30:47.867Z,4.06
2022-12-12T17:33:17.912Z,4.18
2022-12-12T17:35:46.244Z,3.86
2022-12-12T17:38:16.336Z,3.53
2022-12-12T17:40:43.919Z,4.63
2022-12-12T17:43:11.541Z,4.17
2022-12-12T17:45:39.099Z,3.95
2022-12-12T17:48:06.450Z,1.99
2022-12-12T17:50:39.900Z,2.48
2022-12-12T17:53:08.859Z,3.38
2022-12-12T17:55:51.850Z,2.61
2022-12-12T17:58:28.077Z,3.11
2022-12-12T18:00:57.483Z,3.89
2022-12-12T18:03:25.171Z,3.27
2022-12-12T18:05:53.252Z,2.41
2022-12-12T18:08:21.311Z,3.17
2022-12-12T18:10:48.930Z,3.67
2022-12-12T18:13:16.548Z,3.73
2022-12-12T18:15:44.666Z,4.24
2022-12-12T18:18:15.084Z,3.51
2022-12-12T18:20:42.552Z,3.29
2022-12-12T18:23:10.520Z,4.24
2022-12-12T18:25:38.547Z,3.33
2022-12-12T18:28:07.669Z,3.55
2022-12-12T18:30:35.403Z,4.09
2022-12-12T18:33:03.610Z,3.57
2022-12-12T18:35:31.398Z,5.04
2022-12-12T18:37:59.573Z,4.61
2022-12-12T18:40:27.625Z,3.83
2022-12-12T18:42:55.393Z,3.82
2022-12-12T18:45:24.247Z,4.93
2022-12-12T18:47:52.304Z,4.68
2022-12-12T18:50:21.536Z,4.70
2022-12-12T18:52:49.339Z,4.33
2022-12-12T18:55:18.928Z,4.55
2022-12-12T18:57:46.455Z,3.31
2022-12-12T19:00:15.054Z,4.06
2022-12-12T19:02:42.956Z,5.07
2022-12-12T19:05:13.840Z,2.85
2022-12-12T19:07:41.912Z,4.21
2022-12-12T19:10:10.206Z,4.55
2022-12-12T19:12:39.408Z,4.09
2022-12-12T19:15:19.825Z,3.94
2022-12-12T19:17:48.428Z,3.23
2022-12-12T19:20:17.071Z,4.32
2022-12-12T19:22:46.685Z,3.98
2022-12-12T19:25:16.560Z,3.31
2022-12-12T19:27:46.293Z,3.15
2022-12-12T19:30:15.021Z,3.52
2022-12-12T19:32:46.178Z,4.36
2022-12-12T19:35:14.424Z,2.98
2022-12-12T19:37:44.499Z,3.69
2022-12-12T19:40:12.905Z,4.81
2022-12-12T19:42:40.563Z,3.77
2022-12-12T19:45:08.839Z,4.14
2022-12-12T19:47:36.938Z,4.18
2022-12-12T19:50:05.388Z,4.73
2022-12-12T19:52:33.428Z,4.75
2022-12-12T19:55:02.499Z,4.59
2022-12-12T19:57:31.879Z,4.53
2022-12-12T19:59:59.560Z,3.54
2022-12-12T20:02:27.820Z,3.05
2022-12-12T20:04:59.125Z,3.56
2022-12-12T20:07:27.090Z,4.46
2022-12-12T20:09:54.751Z,4.84
2022-12-12T20:12:23.224Z,4.72
2022-12-12T20:14:51.292Z,4.80
2022-12-12T20:17:19.745Z,5.03
2022-12-12T20:19:51.060Z,4.68
2022-12-12T20:22:18.557Z,4.55
2022-12-12T20:24:47.530Z,4.05
2022-12-12T20:27:15.938Z,4.08
2022-12-12T20:29:45.915Z,4.63
2022-12-12T20:32:14.469Z,3.05
2022-12-12T20:34:42.675Z,3.63
2022-12-12T20:37:13.059Z,3.84
2022-12-12T20:39:45.398Z,4.70
2022-12-12T20:42:14.604Z,4.41
2022-12-12T20:44:42.300Z,4.44
2022-12-12T20:47:14.375Z,4.72
2022-12-12T20:49:42.494Z,4.88
2022-12-12T20:52:10.527Z,4.26
2022-12-12T20:54:39.367Z,5.46
2022-12-12T20:57:07.620Z,3.74
2022-12-12T20:59:36.407Z,3.65
2022-12-12T21:02:04.029Z,4.44
2022-12-12T21:04:32.247Z,3.72
2022-12-12T21:07:01.143Z,3.42
2022-12-12T21:09:28.461Z,3.89
2022-12-12T21:11:56.405Z,3.73
2022-12-12T21:14:25.363Z,4.37
2022-12-12T21:16:52.571Z,4.76
2022-12-12T21:19:23.168Z,4.97
2022-12-12T21:21:51.186Z,5.18
2022-12-12T21:24:18.557Z,4.45
2022-12-12T21:26:46.743Z,4.29
2022-12-12T21:29:14.231Z,4.75
2022-12-12T21:31:48.269Z,3.60
2022-12-12T21:34:17.901Z,4.08
2022-12-12T21:36:45.124Z,3.30
2022-12-12T21:39:12.676Z,4.16
2022-12-12T21:41:42.092Z,4.63
2022-12-12T21:44:09.453Z,3.25
2022-12-12T21:46:37.196Z,2.41
2022-12-12T21:49:19.825Z,3.11
2022-12-12T21:51:47.804Z,3.03
2022-12-12T21:54:15.291Z,2.15
2022-12-12T21:56:42.658Z,2.49
2022-12-12T21:59:10.415Z,2.84
2022-12-12T22:01:37.973Z,3.15
2022-12-12T22:04:05.539Z,3.06
2022-12-12T22:06:33.762Z,2.80
2022-12-12T22:09:01.457Z,2.54
2022-12-12T22:11:41.879Z,2.55
2022-12-12T22:14:17.488Z,2.48
2022-12-12T22:16:45.036Z,2.62
2022-12-12T22:19:12.898Z,2.48
2022-12-12T22:21:40.017Z,2.24
2022-12-12T22:24:07.630Z,2.49
2022-12-12T22:26:38.292Z,2.10
2022-12-12T22:29:06.386Z,1.96
2022-12-12T22:31:34.966Z,2.81
2022-12-12T22:34:02.848Z,2.43
2022-12-12T22:36:30.927Z,2.13
2022-12-12T22:38:58.462Z,2.53
2022-12-12T22:41:26.308Z,2.29
2022-12-12T22:43:54.972Z,2.49
2022-12-12T22:46:23.118Z,1.48
2022-12-12T22:48:50.336Z,1.37
2022-12-12T22:51:22.345Z,1.69
2022-12-12T22:53:49.836Z,1.22
2022-12-12T22:56:16.985Z,2.45
2022-12-12T22:58:44.157Z,2.77
2022-12-12T23:01:13.217Z,2.05
2022-12-12T23:03:40.357Z,2.72
2022-12-12T23:06:11.924Z,2.14
2022-12-12T23:08:39.750Z,1.92
2022-12-12T23:11:11.277Z,1.83
2022-12-12T23:13:39.270Z,2.13
2022-12-12T23:16:07.609Z,1.89
2022-12-12T23:18:35.803Z,1.50
2022-12-12T23:21:05.202Z,1.37
2022-12-12T23:23:34.228Z,2.31
2022-12-12T23:26:32.813Z,2.53
2022-12-12T23:29:00.326Z,2.08
2022-12-12T23:31:28.740Z,1.60
2022-12-12T23:33:56.936Z,2.18
2022-12-12T23:36:24.350Z,3.14
2022-12-12T23:38:58.092Z,1.78
2022-12-12T23:41:25.675Z,2.52
2022-12-12T23:43:53.062Z,2.65
2022-12-12T23:46:29.618Z,1.94
2022-12-12T23:49:07.095Z,2.60
2022-12-12T23:51:40.330Z,3.20
2022-12-12T23:54:09.678Z,2.81
2022-12-12T23:56:36.925Z,1.83
2022-12-12T23:59:04.122Z,2.83
